sensor_id;sensor_type;location;lat;lon;timestamp;pressure;altitude;pressure_sealevel;temperature;humidity
54924;BME280;40825;52.270;20.984;2023-05-07T00:00:20;101219.48;;;5.57;99.83
54924;BME280;40825;52.270;20.984;2023-05-07T00:03:05;101223.26;;;5.53;99.73
54924;BME280;40825;52.270;20.984;2023-05-07T00:05:32;101218.67;;;5.50;99.35
54924;BME280;40825;52.270;20.984;2023-05-07T00:07:58;101221.77;;;5.51;99.40
54924;BME280;40825;52.270;20.984;2023-05-07T00:10:23;101221.38;;;5.52;99.88
54924;BME280;40825;52.270;20.984;2023-05-07T00:12:49;101222.67;;;5.53;99.28
54924;BME280;40825;52.270;20.984;2023-05-07T00:15:14;101218.36;;;5.52;99.66
54924;BME280;40825;52.270;20.984;2023-05-07T00:17:40;101217.79;;;5.50;99.89
54924;BME280;40825;52.270;20.984;2023-05-07T00:20:06;101223.21;;;5.47;99.62
54924;BME280;40825;52.270;20.984;2023-05-07T00:22:32;101224.14;;;5.46;99.88
54924;BME280;40825;52.270;20.984;2023-05-07T00:24:58;101224.73;;;5.46;99.30
54924;BME280;40825;52.270;20.984;2023-05-07T00:27:24;101229.33;;;5.48;99.28
54924;BME280;40825;52.270;20.984;2023-05-07T00:29:50;101229.98;;;5.49;99.40
54924;BME280;40825;52.270;20.984;2023-05-07T00:32:16;101226.93;;;5.49;99.25
54924;BME280;40825;52.270;20.984;2023-05-07T00:34:42;101230.48;;;5.48;99.82
54924;BME280;40825;52.270;20.984;2023-05-07T00:37:08;101229.77;;;5.47;99.91
54924;BME280;40825;52.270;20.984;2023-05-07T00:39:34;101233.20;;;5.46;99.89
54924;BME280;40825;52.270;20.984;2023-05-07T00:42:00;101233.50;;;5.44;99.28
54924;BME280;40825;52.270;20.984;2023-05-07T00:44:26;101241.80;;;5.46;99.15
54924;BME280;40825;52.270;20.984;2023-05-07T00:46:52;101239.84;;;5.45;99.38
54924;BME280;40825;52.270;20.984;2023-05-07T00:49:18;101244.92;;;5.43;99.76
54924;BME280;40825;52.270;20.984;2023-05-07T00:51:44;101245.26;;;5.43;99.59
54924;BME280;40825;52.270;20.984;2023-05-07T00:54:10;101250.61;;;5.44;99.77
54924;BME280;40825;52.270;20.984;2023-05-07T00:56:36;101254.06;;;5.42;99.92
54924;BME280;40825;52.270;20.984;2023-05-07T00:59:02;101257.00;;;5.36;99.99
54924;BME280;40825;52.270;20.984;2023-05-07T01:02:32;101258.08;;;5.34;99.89
54924;BME280;40825;52.270;20.984;2023-05-07T01:04:59;101259.90;;;5.29;99.99
54924;BME280;40825;52.270;20.984;2023-05-07T01:07:25;101257.81;;;5.27;100.00
54924;BME280;40825;52.270;20.984;2023-05-07T01:09:52;101258.95;;;5.26;99.97
54924;BME280;40825;52.270;20.984;2023-05-07T01:12:18;101256.83;;;5.26;100.00
54924;BME280;40825;52.270;20.984;2023-05-07T01:14:43;101257.52;;;5.26;100.00
54924;BME280;40825;52.270;20.984;2023-05-07T01:17:09;101255.04;;;5.24;100.00
54924;BME280;40825;52.270;20.984;2023-05-07T01:19:35;101256.98;;;5.20;99.98
54924;BME280;40825;52.270;20.984;2023-05-07T01:22:03;101254.98;;;5.19;100.00
54924;BME280;40825;52.270;20.984;2023-05-07T01:24:31;101257.71;;;5.20;99.97
54924;BME280;40825;52.270;20.984;2023-05-07T01:26:56;101257.21;;;5.21;100.00
54924;BME280;40825;52.270;20.984;2023-05-07T01:29:22;101253.90;;;5.21;99.95
54924;BME280;40825;52.270;20.984;2023-05-07T01:31:48;101256.30;;;5.22;99.93
54924;BME280;40825;52.270;20.984;2023-05-07T01:34:16;101258.77;;;5.24;99.72
54924;BME280;40825;52.270;20.984;2023-05-07T01:36:43;101261.59;;;5.26;99.82
54924;BME280;40825;52.270;20.984;2023-05-07T01:39:10;101267.39;;;5.26;100.00
54924;BME280;40825;52.270;20.984;2023-05-07T01:41:35;101266.96;;;5.23;100.00
54924;BME280;40825;52.270;20.984;2023-05-07T01:44:03;101266.45;;;5.25;100.00
54924;BME280;40825;52.270;20.984;2023-05-07T01:46:29;101266.11;;;5.25;100.00
54924;BME280;40825;52.270;20.984;2023-05-07T01:48:56;101263.20;;;5.21;100.00
54924;BME280;40825;52.270;20.984;2023-05-07T01:51:21;101268.59;;;5.18;100.00
54924;BME280;40825;52.270;20.984;2023-05-07T01:53:47;101267.85;;;5.19;100.00
54924;BME280;40825;52.270;20.984;2023-05-07T01:56:17;101268.98;;;5.20;100.00
54924;BME280;40825;52.270;20.984;2023-05-07T01:58:44;101266.48;;;5.20;99.98
54924;BME280;40825;52.270;20.984;2023-05-07T02:01:13;101263.90;;;5.22;99.95
54924;BME280;40825;52.270;20.984;2023-05-07T02:03:38;101264.20;;;5.22;100.00
54924;BME280;40825;52.270;20.984;2023-05-07T02:06:04;101266.89;;;5.17;100.00
54924;BME280;40825;52.270;20.984;2023-05-07T02:08:29;101261.40;;;5.16;100.00
54924;BME280;40825;52.270;20.984;2023-05-07T02:10:55;101260.73;;;5.15;100.00
54924;BME280;40825;52.270;20.984;2023-05-07T02:13:20;101263.60;;;5.17;100.00
54924;BME280;40825;52.270;20.984;2023-05-07T02:15:47;101262.17;;;5.15;100.00
54924;BME280;40825;52.270;20.984;2023-05-07T02:18:16;101263.56;;;5.11;100.00
54924;BME280;40825;52.270;20.984;2023-05-07T02:20:42;101263.35;;;5.10;100.00
54924;BME280;40825;52.270;20.984;2023-05-07T02:23:07;101264.46;;;5.07;100.00
54924;BME280;40825;52.270;20.984;2023-05-07T02:25:33;101266.27;;;5.06;100.00
54924;BME280;40825;52.270;20.984;2023-05-07T02:27:58;101262.50;;;5.05;100.00
54924;BME280;40825;52.270;20.984;2023-05-07T02:30:24;101262.23;;;5.06;100.00
54924;BME280;40825;52.270;20.984;2023-05-07T02:32:51;101264.70;;;5.04;100.00
54924;BME280;40825;52.270;20.984;2023-05-07T02:35:16;101264.79;;;5.03;100.00
54924;BME280;40825;52.270;20.984;2023-05-07T02:37:42;101265.03;;;5.03;100.00
54924;BME280;40825;52.270;20.984;2023-05-07T02:40:08;101266.08;;;5.02;100.00
54924;BME280;40825;52.270;20.984;2023-05-07T02:42:34;101266.11;;;5.04;100.00
54924;BME280;40825;52.270;20.984;2023-05-07T02:45:00;101268.74;;;5.04;100.00
54924;BME280;40825;52.270;20.984;2023-05-07T02:47:26;101271.90;;;5.03;100.00
54924;BME280;40825;52.270;20.984;2023-05-07T02:49:55;101272.39;;;4.99;100.00
54924;BME280;40825;52.270;20.984;2023-05-07T02:52:21;101268.88;;;4.97;100.00
54924;BME280;40825;52.270;20.984;2023-05-07T02:54:46;101269.80;;;4.94;100.00
54924;BME280;40825;52.270;20.984;2023-05-07T02:57:12;101271.00;;;4.94;100.00
54924;BME280;40825;52.270;20.984;2023-05-07T02:59:37;101276.05;;;4.95;100.00
54924;BME280;40825;52.270;20.984;2023-05-07T03:02:03;101276.80;;;4.94;100.00
54924;BME280;40825;52.270;20.984;2023-05-07T03:04:28;101280.88;;;4.92;100.00
54924;BME280;40825;52.270;20.984;2023-05-07T03:06:54;101282.33;;;4.92;100.00
54924;BME280;40825;52.270;20.984;2023-05-07T03:09:20;101281.34;;;4.89;100.00
54924;BME280;40825;52.270;20.984;2023-05-07T03:11:46;101283.45;;;4.89;100.00
54924;BME280;40825;52.270;20.984;2023-05-07T03:14:11;101282.52;;;4.90;100.00
54924;BME280;40825;52.270;20.984;2023-05-07T03:16:37;101286.23;;;4.89;100.00
54924;BME280;40825;52.270;20.984;2023-05-07T03:19:03;101290.44;;;4.92;100.00
54924;BME280;40825;52.270;20.984;2023-05-07T03:21:30;101294.26;;;4.94;100.00
54924;BME280;40825;52.270;20.984;2023-05-07T03:23:55;101297.26;;;4.94;100.00
54924;BME280;40825;52.270;20.984;2023-05-07T03:26:21;101299.73;;;4.94;100.00
54924;BME280;40825;52.270;20.984;2023-05-07T03:28:47;101299.26;;;4.96;100.00
54924;BME280;40825;52.270;20.984;2023-05-07T03:31:12;101302.66;;;4.98;100.00
54924;BME280;40825;52.270;20.984;2023-05-07T03:33:50;101302.93;;;5.01;100.00
54924;BME280;40825;52.270;20.984;2023-05-07T03:36:16;101307.76;;;5.02;100.00
54924;BME280;40825;52.270;20.984;2023-05-07T03:38:41;101308.51;;;5.00;100.00
54924;BME280;40825;52.270;20.984;2023-05-07T03:41:07;101312.20;;;5.00;100.00
54924;BME280;40825;52.270;20.984;2023-05-07T03:43:32;101315.19;;;5.00;100.00
54924;BME280;40825;52.270;20.984;2023-05-07T03:45:58;101318.39;;;5.01;100.00
54924;BME280;40825;52.270;20.984;2023-05-07T03:48:23;101320.55;;;5.03;100.00
54924;BME280;40825;52.270;20.984;2023-05-07T03:50:49;101324.81;;;5.03;100.00
54924;BME280;40825;52.270;20.984;2023-05-07T03:53:14;101329.24;;;5.02;100.00
54924;BME280;40825;52.270;20.984;2023-05-07T03:55:40;101332.33;;;5.01;100.00
54924;BME280;40825;52.270;20.984;2023-05-07T03:58:05;101329.93;;;5.03;100.00
54924;BME280;40825;52.270;20.984;2023-05-07T04:00:32;101329.59;;;5.05;100.00
54924;BME280;40825;52.270;20.984;2023-05-07T04:03:02;101326.38;;;5.03;100.00
54924;BME280;40825;52.270;20.984;2023-05-07T04:05:30;101330.95;;;5.03;100.00
54924;BME280;40825;52.270;20.984;2023-05-07T04:07:58;101333.30;;;5.04;100.00
54924;BME280;40825;52.270;20.984;2023-05-07T04:10:24;101338.04;;;5.03;100.00
54924;BME280;40825;52.270;20.984;2023-05-07T04:12:49;101339.95;;;5.03;100.00
54924;BME280;40825;52.270;20.984;2023-05-07T04:15:15;101344.15;;;5.08;100.00
54924;BME280;40825;52.270;20.984;2023-05-07T04:17:40;101344.17;;;5.12;100.00
54924;BME280;40825;52.270;20.984;2023-05-07T04:20:09;101350.23;;;5.17;100.00
54924;BME280;40825;52.270;20.984;2023-05-07T04:22:35;101354.13;;;5.17;100.00
54924;BME280;40825;52.270;20.984;2023-05-07T04:25:01;101359.81;;;5.17;100.00
54924;BME280;40825;52.270;20.984;2023-05-07T04:27:27;101356.23;;;5.17;100.00
54924;BME280;40825;52.270;20.984;2023-05-07T04:29:53;101358.26;;;5.18;100.00
54924;BME280;40825;52.270;20.984;2023-05-07T04:32:23;101361.16;;;5.17;100.00
54924;BME280;40825;52.270;20.984;2023-05-07T04:34:50;101362.02;;;5.16;100.00
54924;BME280;40825;52.270;20.984;2023-05-07T04:37:15;101363.63;;;5.17;100.00
54924;BME280;40825;52.270;20.984;2023-05-07T04:39:41;101366.84;;;5.19;100.00
54924;BME280;40825;52.270;20.984;2023-05-07T04:42:06;101369.09;;;5.19;100.00
54924;BME280;40825;52.270;20.984;2023-05-07T04:44:34;101368.42;;;5.19;100.00
54924;BME280;40825;52.270;20.984;2023-05-07T04:47:02;101368.94;;;5.19;100.00
54924;BME280;40825;52.270;20.984;2023-05-07T04:49:27;101370.59;;;5.23;100.00
54924;BME280;40825;52.270;20.984;2023-05-07T04:51:53;101372.25;;;5.28;100.00
54924;BME280;40825;52.270;20.984;2023-05-07T04:54:18;101372.39;;;5.31;100.00
54924;BME280;40825;52.270;20.984;2023-05-07T04:56:43;101376.02;;;5.34;100.00
54924;BME280;40825;52.270;20.984;2023-05-07T04:59:09;101378.45;;;5.36;100.00
54924;BME280;40825;52.270;20.984;2023-05-07T05:01:35;101381.22;;;5.39;100.00
54924;BME280;40825;52.270;20.984;2023-05-07T05:04:00;101386.38;;;5.40;100.00
54924;BME280;40825;52.270;20.984;2023-05-07T05:06:26;101383.98;;;5.44;100.00
54924;BME280;40825;52.270;20.984;2023-05-07T05:08:54;101390.27;;;5.53;100.00
54924;BME280;40825;52.270;20.984;2023-05-07T05:11:20;101388.04;;;5.56;100.00
54924;BME280;40825;52.270;20.984;2023-05-07T05:13:46;101391.04;;;5.60;100.00
54924;BME280;40825;52.270;20.984;2023-05-07T05:16:14;101392.83;;;5.66;100.00
54924;BME280;40825;52.270;20.984;2023-05-07T05:18:40;101397.16;;;5.75;100.00
54924;BME280;40825;52.270;20.984;2023-05-07T05:21:05;101394.36;;;5.89;100.00
54924;BME280;40825;52.270;20.984;2023-05-07T05:23:31;101398.48;;;5.99;100.00
54924;BME280;40825;52.270;20.984;2023-05-07T05:25:57;101400.14;;;6.05;100.00
54924;BME280;40825;52.270;20.984;2023-05-07T05:28:23;101399.61;;;6.11;100.00
54924;BME280;40825;52.270;20.984;2023-05-07T05:30:49;101405.29;;;6.13;100.00
54924;BME280;40825;52.270;20.984;2023-05-07T05:33:14;101411.66;;;6.14;100.00
54924;BME280;40825;52.270;20.984;2023-05-07T05:35:40;101406.85;;;6.21;100.00
54924;BME280;40825;52.270;20.984;2023-05-07T05:38:05;101404.28;;;6.20;100.00
54924;BME280;40825;52.270;20.984;2023-05-07T05:40:30;101405.50;;;6.18;100.00
54924;BME280;40825;52.270;20.984;2023-05-07T05:42:56;101408.34;;;6.14;100.00
54924;BME280;40825;52.270;20.984;2023-05-07T05:45:21;101406.89;;;6.10;100.00
54924;BME280;40825;52.270;20.984;2023-05-07T05:47:47;101412.91;;;6.10;100.00
54924;BME280;40825;52.270;20.984;2023-05-07T05:50:12;101414.80;;;6.13;100.00
54924;BME280;40825;52.270;20.984;2023-05-07T05:52:38;101418.05;;;6.12;100.00
54924;BME280;40825;52.270;20.984;2023-05-07T05:55:04;101415.46;;;6.13;100.00
54924;BME280;40825;52.270;20.984;2023-05-07T05:57:29;101421.50;;;6.17;100.00
54924;BME280;40825;52.270;20.984;2023-05-07T05:59:55;101428.53;;;6.19;100.00
54924;BME280;40825;52.270;20.984;2023-05-07T06:02:21;101435.73;;;6.18;100.00
54924;BME280;40825;52.270;20.984;2023-05-07T06:04:46;101437.54;;;6.15;99.99
54924;BME280;40825;52.270;20.984;2023-05-07T06:07:12;101439.09;;;6.10;100.00
54924;BME280;40825;52.270;20.984;2023-05-07T06:09:37;101436.51;;;6.13;100.00
54924;BME280;40825;52.270;20.984;2023-05-07T06:12:03;101432.77;;;6.15;100.00
54924;BME280;40825;52.270;20.984;2023-05-07T06:14:28;101435.09;;;6.19;99.80
54924;BME280;40825;52.270;20.984;2023-05-07T06:16:54;101439.84;;;6.22;99.96
54924;BME280;40825;52.270;20.984;2023-05-07T06:19:19;101440.73;;;6.23;100.00
54924;BME280;40825;52.270;20.984;2023-05-07T06:21:48;101445.91;;;6.29;99.97
54924;BME280;40825;52.270;20.984;2023-05-07T06:24:14;101446.40;;;6.37;99.97
54924;BME280;40825;52.270;20.984;2023-05-07T06:26:39;101450.79;;;6.44;99.88
54924;BME280;40825;52.270;20.984;2023-05-07T06:29:06;101452.20;;;6.46;99.53
54924;BME280;40825;52.270;20.984;2023-05-07T06:31:31;101456.36;;;6.45;99.32
54924;BME280;40825;52.270;20.984;2023-05-07T06:33:57;101455.33;;;6.44;99.35
54924;BME280;40825;52.270;20.984;2023-05-07T06:36:23;101454.30;;;6.50;99.67
54924;BME280;40825;52.270;20.984;2023-05-07T06:38:48;101459.69;;;6.57;99.59
54924;BME280;40825;52.270;20.984;2023-05-07T06:41:13;101458.83;;;6.63;99.44
54924;BME280;40825;52.270;20.984;2023-05-07T06:43:39;101457.91;;;6.65;99.39
54924;BME280;40825;52.270;20.984;2023-05-07T06:46:05;101453.19;;;6.63;99.00
54924;BME280;40825;52.270;20.984;2023-05-07T06:48:30;101458.02;;;6.62;98.74
54924;BME280;40825;52.270;20.984;2023-05-07T06:50:56;101462.83;;;6.64;99.17
54924;BME280;40825;52.270;20.984;2023-05-07T06:53:23;101464.11;;;6.65;97.89
54924;BME280;40825;52.270;20.984;2023-05-07T06:55:49;101461.27;;;6.67;98.32
54924;BME280;40825;52.270;20.984;2023-05-07T06:58:15;101463.87;;;6.78;98.44
54924;BME280;40825;52.270;20.984;2023-05-07T07:00:40;101467.35;;;6.88;98.33
54924;BME280;40825;52.270;20.984;2023-05-07T07:03:06;101465.42;;;6.94;97.35
54924;BME280;40825;52.270;20.984;2023-05-07T07:05:32;101474.20;;;7.02;97.30
54924;BME280;40825;52.270;20.984;2023-05-07T07:07:57;101470.19;;;7.13;97.48
54924;BME280;40825;52.270;20.984;2023-05-07T07:10:23;101471.98;;;7.29;97.76
54924;BME280;40825;52.270;20.984;2023-05-07T07:12:49;101471.34;;;7.34;96.87
54924;BME280;40825;52.270;20.984;2023-05-07T07:15:15;101470.64;;;7.43;96.84
54924;BME280;40825;52.270;20.984;2023-05-07T07:17:41;101474.96;;;7.37;95.30
54924;BME280;40825;52.270;20.984;2023-05-07T07:20:07;101471.29;;;7.42;95.36
54924;BME280;40825;52.270;20.984;2023-05-07T07:22:32;101471.67;;;7.44;95.49
54924;BME280;40825;52.270;20.984;2023-05-07T07:24:58;101474.69;;;7.44;94.91
54924;BME280;40825;52.270;20.984;2023-05-07T07:27:23;101484.94;;;7.42;94.54
54924;BME280;40825;52.270;20.984;2023-05-07T07:29:49;101483.23;;;7.43;93.70
54924;BME280;40825;52.270;20.984;2023-05-07T07:32:14;101486.79;;;7.39;93.54
54924;BME280;40825;52.270;20.984;2023-05-07T07:34:40;101494.16;;;7.46;94.50
54924;BME280;40825;52.270;20.984;2023-05-07T07:37:06;101495.89;;;7.56;94.17
54924;BME280;40825;52.270;20.984;2023-05-07T07:39:32;101496.96;;;7.61;94.80
54924;BME280;40825;52.270;20.984;2023-05-07T07:41:58;101497.84;;;7.69;95.21
54924;BME280;40825;52.270;20.984;2023-05-07T07:44:24;101498.41;;;7.77;95.20
54924;BME280;40825;52.270;20.984;2023-05-07T07:46:50;101499.70;;;7.78;94.39
54924;BME280;40825;52.270;20.984;2023-05-07T07:49:16;101504.65;;;7.86;93.80
54924;BME280;40825;52.270;20.984;2023-05-07T07:51:41;101507.87;;;7.91;93.15
54924;BME280;40825;52.270;20.984;2023-05-07T07:54:07;101506.55;;;7.91;92.06
54924;BME280;40825;52.270;20.984;2023-05-07T07:56:33;101501.00;;;7.81;90.93
54924;BME280;40825;52.270;20.984;2023-05-07T07:58:59;101501.23;;;7.77;91.62
54924;BME280;40825;52.270;20.984;2023-05-07T08:01:25;101501.45;;;7.78;90.89
54924;BME280;40825;52.270;20.984;2023-05-07T08:03:51;101504.27;;;7.82;91.08
54924;BME280;40825;52.270;20.984;2023-05-07T08:06:16;101505.45;;;7.87;90.44
54924;BME280;40825;52.270;20.984;2023-05-07T08:08:42;101509.35;;;7.87;90.50
54924;BME280;40825;52.270;20.984;2023-05-07T08:11:07;101508.86;;;7.86;90.60
54924;BME280;40825;52.270;20.984;2023-05-07T08:13:33;101511.41;;;7.89;90.60
54924;BME280;40825;52.270;20.984;2023-05-07T08:15:58;101514.35;;;7.92;89.38
54924;BME280;40825;52.270;20.984;2023-05-07T08:18:25;101520.88;;;7.92;88.93
54924;BME280;40825;52.270;20.984;2023-05-07T08:20:51;101522.45;;;8.06;87.53
54924;BME280;40825;52.270;20.984;2023-05-07T08:23:16;101519.21;;;8.29;86.40
54924;BME280;40825;52.270;20.984;2023-05-07T08:25:42;101527.08;;;8.28;87.12
54924;BME280;40825;52.270;20.984;2023-05-07T08:28:11;101525.08;;;8.21;86.88
54924;BME280;40825;52.270;20.984;2023-05-07T08:30:36;101526.40;;;8.24;87.37
54924;BME280;40825;52.270;20.984;2023-05-07T08:33:02;101523.19;;;8.39;85.93
54924;BME280;40825;52.270;20.984;2023-05-07T08:35:27;101522.18;;;8.59;85.72
54924;BME280;40825;52.270;20.984;2023-05-07T08:37:53;101524.77;;;8.91;87.35
54924;BME280;40825;52.270;20.984;2023-05-07T08:40:24;101525.52;;;8.94;86.82
54924;BME280;40825;52.270;20.984;2023-05-07T08:42:51;101531.31;;;8.80;86.16
54924;BME280;40825;52.270;20.984;2023-05-07T08:45:19;101535.14;;;8.70;84.74
54924;BME280;40825;52.270;20.984;2023-05-07T08:47:50;101535.42;;;8.62;84.98
54924;BME280;40825;52.270;20.984;2023-05-07T08:50:17;101532.46;;;8.69;85.70
54924;BME280;40825;52.270;20.984;2023-05-07T08:52:42;101534.36;;;8.93;84.17
54924;BME280;40825;52.270;20.984;2023-05-07T08:55:08;101530.81;;;9.20;82.22
54924;BME280;40825;52.270;20.984;2023-05-07T08:57:35;101536.58;;;9.37;80.02
54924;BME280;40825;52.270;20.984;2023-05-07T09:00:02;101545.84;;;9.88;78.95
54924;BME280;40825;52.270;20.984;2023-05-07T09:02:28;101538.52;;;10.04;78.95
54924;BME280;40825;52.270;20.984;2023-05-07T09:04:53;101542.16;;;9.86;79.51
54924;BME280;40825;52.270;20.984;2023-05-07T09:07:20;101541.23;;;9.70;81.12
54924;BME280;40825;52.270;20.984;2023-05-07T09:09:46;101547.95;;;9.53;79.60
54924;BME280;40825;52.270;20.984;2023-05-07T09:12:11;101544.41;;;9.44;79.52
54924;BME280;40825;52.270;20.984;2023-05-07T09:14:38;101542.62;;;9.26;79.91
54924;BME280;40825;52.270;20.984;2023-05-07T09:17:03;101546.42;;;9.18;81.24
54924;BME280;40825;52.270;20.984;2023-05-07T09:19:29;101546.08;;;9.25;79.51
54924;BME280;40825;52.270;20.984;2023-05-07T09:22:02;101545.80;;;9.41;77.25
54924;BME280;40825;52.270;20.984;2023-05-07T09:24:28;101547.96;;;9.55;76.49
54924;BME280;40825;52.270;20.984;2023-05-07T09:26:59;101549.55;;;9.97;74.96
54924;BME280;40825;52.270;20.984;2023-05-07T09:29:27;101549.23;;;10.72;75.87
54924;BME280;40825;52.270;20.984;2023-05-07T09:31:54;101560.89;;;10.99;73.51
54924;BME280;40825;52.270;20.984;2023-05-07T09:34:20;101562.09;;;10.83;72.92
54924;BME280;40825;52.270;20.984;2023-05-07T09:36:46;101561.95;;;10.55;73.28
54924;BME280;40825;52.270;20.984;2023-05-07T09:39:12;101563.73;;;10.25;73.44
54924;BME280;40825;52.270;20.984;2023-05-07T09:41:46;101566.94;;;9.92;73.30
54924;BME280;40825;52.270;20.984;2023-05-07T09:44:12;101569.19;;;9.73;73.83
54924;BME280;40825;52.270;20.984;2023-05-07T09:46:42;101565.23;;;9.79;75.07
54924;BME280;40825;52.270;20.984;2023-05-07T09:49:12;101570.11;;;10.05;76.05
54924;BME280;40825;52.270;20.984;2023-05-07T09:51:47;101566.19;;;10.52;76.45
54924;BME280;40825;52.270;20.984;2023-05-07T09:54:14;101577.91;;;11.01;73.36
54924;BME280;40825;52.270;20.984;2023-05-07T09:56:40;101577.44;;;10.92;71.30
54924;BME280;40825;52.270;20.984;2023-05-07T09:59:12;101580.72;;;10.71;70.85
54924;BME280;40825;52.270;20.984;2023-05-07T10:01:40;101587.20;;;10.48;69.57
54924;BME280;40825;52.270;20.984;2023-05-07T10:04:07;101588.70;;;10.28;68.38
54924;BME280;40825;52.270;20.984;2023-05-07T10:06:36;101580.36;;;10.33;69.95
54924;BME280;40825;52.270;20.984;2023-05-07T10:09:05;101580.09;;;10.62;71.87
54924;BME280;40825;52.270;20.984;2023-05-07T10:11:35;101587.85;;;11.12;70.05
54924;BME280;40825;52.270;20.984;2023-05-07T10:14:01;101586.30;;;11.21;68.76
54924;BME280;40825;52.270;20.984;2023-05-07T10:16:31;101597.05;;;10.99;66.33
54924;BME280;40825;52.270;20.984;2023-05-07T10:19:04;101591.92;;;10.66;67.22
54924;BME280;40825;52.270;20.984;2023-05-07T10:21:30;101595.19;;;10.48;68.40
54924;BME280;40825;52.270;20.984;2023-05-07T10:24:04;101597.84;;;10.31;67.66
54924;BME280;40825;52.270;20.984;2023-05-07T10:26:35;101590.23;;;10.79;67.68
54924;BME280;40825;52.270;20.984;2023-05-07T10:29:07;101589.27;;;11.00;66.85
54924;BME280;40825;52.270;20.984;2023-05-07T10:34:17;101588.16;;;11.17;66.08
54924;BME280;40825;52.270;20.984;2023-05-07T10:36:44;101587.02;;;11.13;68.10
54924;BME280;40825;52.270;20.984;2023-05-07T10:39:10;101583.02;;;10.86;66.24
54924;BME280;40825;52.270;20.984;2023-05-07T10:41:36;101591.18;;;10.61;66.28
54924;BME280;40825;52.270;20.984;2023-05-07T10:44:02;101590.06;;;10.43;68.03
54924;BME280;40825;52.270;20.984;2023-05-07T10:46:28;101591.89;;;10.32;69.99
54924;BME280;40825;52.270;20.984;2023-05-07T10:51:30;101598.79;;;10.36;69.02
54924;BME280;40825;52.270;20.984;2023-05-07T10:56:38;101607.20;;;10.37;67.28
54924;BME280;40825;52.270;20.984;2023-05-07T11:01:59;101606.13;;;10.56;69.28
54924;BME280;40825;52.270;20.984;2023-05-07T11:04:25;101609.90;;;10.54;67.34
54924;BME280;40825;52.270;20.984;2023-05-07T11:09:54;101605.45;;;10.37;68.38
54924;BME280;40825;52.270;20.984;2023-05-07T11:15:07;101612.28;;;10.13;68.17
54924;BME280;40825;52.270;20.984;2023-05-07T11:17:33;101610.86;;;9.99;67.25
54924;BME280;40825;52.270;20.984;2023-05-07T11:20:02;101614.65;;;9.93;69.67
54924;BME280;40825;52.270;20.984;2023-05-07T11:24:56;101617.10;;;9.94;67.73
54924;BME280;40825;52.270;20.984;2023-05-07T11:27:23;101619.98;;;9.95;69.43
54924;BME280;40825;52.270;20.984;2023-05-07T11:29:50;101617.73;;;9.88;68.63
54924;BME280;40825;52.270;20.984;2023-05-07T11:32:22;101621.76;;;10.20;68.11
54924;BME280;40825;52.270;20.984;2023-05-07T11:34:51;101616.73;;;10.60;68.22
54924;BME280;40825;52.270;20.984;2023-05-07T11:37:17;101619.63;;;10.86;68.50
54924;BME280;40825;52.270;20.984;2023-05-07T11:39:43;101621.81;;;10.73;66.15
54924;BME280;40825;52.270;20.984;2023-05-07T11:42:35;101622.94;;;10.47;67.51
54924;BME280;40825;52.270;20.984;2023-05-07T11:45:02;101623.32;;;10.38;67.11
54924;BME280;40825;52.270;20.984;2023-05-07T11:47:31;101632.30;;;10.25;66.85
54924;BME280;40825;52.270;20.984;2023-05-07T11:50:02;101628.23;;;10.14;67.30
54924;BME280;40825;52.270;20.984;2023-05-07T11:52:28;101629.57;;;10.15;68.34
54924;BME280;40825;52.270;20.984;2023-05-07T11:54:56;101629.60;;;10.16;68.22
54924;BME280;40825;52.270;20.984;2023-05-07T11:57:24;101622.95;;;10.32;67.55
54924;BME280;40825;52.270;20.984;2023-05-07T12:00:00;101627.89;;;10.42;66.80
54924;BME280;40825;52.270;20.984;2023-05-07T12:02:27;101624.86;;;10.56;66.40
54924;BME280;40825;52.270;20.984;2023-05-07T12:04:54;101626.36;;;10.69;66.04
54924;BME280;40825;52.270;20.984;2023-05-07T12:07:20;101624.79;;;10.81;65.25
54924;BME280;40825;52.270;20.984;2023-05-07T12:09:46;101634.44;;;11.01;65.02
54924;BME280;40825;52.270;20.984;2023-05-07T12:12:13;101631.48;;;11.14;65.48
54924;BME280;40825;52.270;20.984;2023-05-07T12:14:43;101633.40;;;11.16;64.75
54924;BME280;40825;52.270;20.984;2023-05-07T12:17:11;101634.92;;;11.15;64.71
54924;BME280;40825;52.270;20.984;2023-05-07T12:19:38;101637.82;;;11.06;64.87
54924;BME280;40825;52.270;20.984;2023-05-07T12:22:04;101638.48;;;10.91;64.20
54924;BME280;40825;52.270;20.984;2023-05-07T12:24:47;101638.35;;;11.01;65.73
54924;BME280;40825;52.270;20.984;2023-05-07T12:27:14;101642.30;;;11.31;66.06
54924;BME280;40825;52.270;20.984;2023-05-07T12:29:39;101641.01;;;11.40;64.72
54924;BME280;40825;52.270;20.984;2023-05-07T12:32:13;101641.51;;;11.28;64.11
54924;BME280;40825;52.270;20.984;2023-05-07T12:34:39;101643.45;;;11.17;63.53
54924;BME280;40825;52.270;20.984;2023-05-07T12:37:05;101644.80;;;11.14;63.20
54924;BME280;40825;52.270;20.984;2023-05-07T12:39:30;101638.94;;;11.02;64.23
54924;BME280;40825;52.270;20.984;2023-05-07T12:42:00;101641.68;;;11.01;63.28
54924;BME280;40825;52.270;20.984;2023-05-07T12:44:33;101643.85;;;11.18;64.44
54924;BME280;40825;52.270;20.984;2023-05-07T12:47:02;101642.02;;;11.39;65.36
54924;BME280;40825;52.270;20.984;2023-05-07T12:49:28;101651.08;;;11.36;62.93
54924;BME280;40825;52.270;20.984;2023-05-07T12:51:54;101645.77;;;11.22;62.38
54924;BME280;40825;52.270;20.984;2023-05-07T12:54:29;101646.83;;;11.42;64.56
54924;BME280;40825;52.270;20.984;2023-05-07T12:57:02;101648.98;;;11.59;63.53
54924;BME280;40825;52.270;20.984;2023-05-07T12:59:36;101652.96;;;11.65;62.53